Flight Track Log - Related Links

Times and Time Zones

All times are in EDT time to prevent confusion due to time zone crossing. See the UAL4380 flight status page for this flight to view local times or setup timezone preferences in your user account.

Time Position Orientation Groundspeed Altitude Reporting Facility
EDT Latitude Longitude Course Direction KTS MPH feet Rate Location/Type
Wed 09:06:54 AM 29.9783 -95.2958 North 165 190 800  Level Houston Center
Wed 09:07:38 AM 30.0028 -95.2639 49° Northeast 243 280 2,000 1,829 Climbing Houston Center
Wed 09:08:16 AM 30.0433 -95.2594 North 258 297 3,300 2,066 Climbing Houston Center
Wed 09:08:39 AM 30.0778 -95.2594 360° North 310 357 4,100 1,672 Climbing Houston Center
Wed 09:09:00 AM 30.2613 -95.4062 349° North  Level FlightAware Approximate
Wed 09:09:17 AM 30.1189 -95.2764 340° North 275 316 5,000  Level Houston Center
Wed 09:10:00 AM 30.3548 -95.4270 349° North  Level FlightAware Approximate
Wed 09:10:19 AM 30.1944 -95.3150 336° Northwest 291 335 7,400  Level Houston Center
Wed 09:11:00 AM 30.4476 -95.4517 346° North  Level FlightAware Approximate
Wed 09:11:21 AM 30.2864 -95.3600 337° Northwest 299 344 10,100  Level Houston Center
Wed 09:12:00 AM 30.5413 -95.4667 North  Level FlightAware Approximate
Wed 09:12:23 AM 30.3667 -95.4006 336° Northwest 308 354 11,400  Level Houston Center
Wed 09:13:25 AM 30.4544 -95.4419 338° Northwest 335 386 12,300 919 Climbing Houston Center
Wed 09:14:27 AM 30.5519 -95.4803 341° North 366 421 13,300 927 Climbing Houston Center
Wed 09:15:28 AM 30.6556 -95.5014 350° North 378 435 14,200 1,122 Climbing Houston Center
Wed 09:16:30 AM 30.7603 -95.5258 349° North 386 444 15,600 1,500 Climbing Houston Center
Wed 09:17:32 AM 30.8869 -95.5547 349° North 385 443 17,300 1,548 Climbing Houston Center
Wed 09:18:34 AM 30.9911 -95.5778 349° North 380 437 18,800 1,317 Climbing Houston Center
Wed 09:19:35 AM 31.0983 -95.6028 349° North 385 443 20,000 585 Climbing Houston Center
Wed 09:20:37 AM 31.2122 -95.6281 349° North 400 460 20,000  Level Houston Center
Wed 09:21:03 AM 31.2636 -95.6392 350° North 440 506 20,000  Level Fort Worth Center
Wed 09:22:03 AM 31.3725 -95.6736 345° North 425 489 20,000  Level Fort Worth Center
Wed 09:23:03 AM 31.4736 -95.7400 331° Northwest 413 475 20,000  Level Fort Worth Center
Wed 09:24:03 AM 31.5789 -95.8089 331° Northwest 418 481 20,000  Level Fort Worth Center
Wed 09:25:03 AM 31.6819 -95.8778 330° Northwest 426 490 20,000  Level Fort Worth Center
Wed 09:26:03 AM 31.7811 -95.9447 330° Northwest 426 490 20,000  Level Fort Worth Center
Wed 09:27:03 AM 31.8967 -96.0236 330° Northwest 426 490 20,000 -1,000 Level Fort Worth Center
Wed 09:28:03 AM 31.9933 -96.0881 331° Northwest 414 476 18,000 -2,450 Descending Fort Worth Center
Wed 09:29:03 AM 32.0817 -96.1481 330° Northwest 414 476 15,100 -2,700 Descending Fort Worth Center
Wed 09:30:03 AM 32.1783 -96.2106 331° Northwest 404 465 12,600 -2,050 Descending Fort Worth Center
Wed 09:31:03 AM 32.2686 -96.2683 332° Northwest 362 417 11,000 -1,650 Descending Fort Worth Center
Wed 09:32:03 AM 32.3464 -96.3167 332° Northwest 325 374 9,300 -1,000 Descending Fort Worth Center
Wed 09:33:03 AM 32.4197 -96.3600 333° Northwest 301 346 9,000 -150 Descending Fort Worth Center
Wed 09:34:03 AM 32.4953 -96.4061 333° Northwest 301 346 9,000 -700 Level Fort Worth Center
Wed 09:35:03 AM 32.5689 -96.4494 334° Northwest 301 346 7,600 -1,400 Descending Fort Worth Center
Wed 09:36:03 AM 32.6422 -96.4956 332° Northwest 301 346 6,200 -1,300 Descending Fort Worth Center
Wed 09:37:03 AM 32.7031 -96.5444 326° Northwest 301 346 5,000 -600 Descending Fort Worth Center
Wed 09:38:03 AM 32.7828 -96.6031 328° Northwest 301 346 5,000  Level Fort Worth Center
Wed 09:39:03 AM 32.8458 -96.6519 327° Northwest 306 352 5,000 -231 Level Fort Worth Center
Wed 09:39:47 AM 32.9000 -96.7000 323° Northwest 298 343 4,600 -577 Descending Dallas / Fort Worth TRACON
Wed 09:40:47 AM 32.9500 -96.7667 312° West 285 328 4,000 -350 Descending Dallas / Fort Worth TRACON
Wed 09:41:47 AM 32.9833 -96.8500 296° West 265 305 3,900 -857 Descending Dallas / Fort Worth TRACON
Wed 09:42:53 AM 32.9667 -96.9333 257° West 225 259 2,200 -952 Descending Dallas / Fort Worth TRACON
Wed 09:43:53 AM 32.9167 -96.9333 180° South 178 205 1,900 -300 Descending Dallas / Fort Worth TRACON

Login

Don't have an account? Register now (free) for customized features, flight alerts, and more!